createdAt,value
2023-04-26T05:00:38.005Z,-0.36
2023-04-26T05:03:17.575Z,-0.33
2023-04-26T05:05:45.675Z,-0.27
2023-04-26T05:08:12.402Z,-0.28
2023-04-26T05:10:39.841Z,-0.25
2023-04-26T05:13:07.053Z,-0.23
2023-04-26T05:15:34.478Z,-0.17
2023-04-26T05:18:01.605Z,-0.12
2023-04-26T05:20:29.444Z,-0.08
2023-04-26T05:22:56.678Z,-0.03
2023-04-26T05:25:23.212Z,-0.01
2023-04-26T05:27:56.100Z,0.05
2023-04-26T05:30:31.344Z,0.16
2023-04-26T05:33:21.249Z,0.14
2023-04-26T05:35:58.279Z,0.20
2023-04-26T05:38:25.410Z,0.29
2023-04-26T05:40:52.556Z,0.37
2023-04-26T05:43:19.511Z,0.42
2023-04-26T05:45:57.485Z,0.50
2023-04-26T05:48:26.206Z,0.55
2023-04-26T05:50:53.771Z,0.63
2023-04-26T05:53:20.586Z,0.70
2023-04-26T05:55:48.063Z,0.77
2023-04-26T05:58:15.694Z,0.86
2023-04-26T06:00:43.278Z,0.95
2023-04-26T06:03:10.098Z,1.14
2023-04-26T06:05:40.034Z,1.35
2023-04-26T06:08:08.198Z,1.54
2023-04-26T06:10:36.531Z,1.74
2023-04-26T06:13:04.654Z,1.97
2023-04-26T06:15:34.624Z,2.14
2023-04-26T06:18:01.507Z,2.39
2023-04-26T06:20:28.806Z,2.61
2023-04-26T06:22:55.565Z,2.85
2023-04-26T06:25:22.855Z,3.08
2023-04-26T06:27:49.786Z,3.35
2023-04-26T06:30:17.350Z,3.68
2023-04-26T06:32:47.092Z,3.94
2023-04-26T06:35:14.846Z,4.16
2023-04-26T06:37:42.053Z,4.41
2023-04-26T06:40:11.347Z,4.63
2023-04-26T06:42:38.102Z,4.80
2023-04-26T06:45:24.236Z,4.96
2023-04-26T06:47:54.229Z,5.20
2023-04-26T06:50:24.316Z,5.44
2023-04-26T06:52:51.524Z,5.68
2023-04-26T06:55:19.249Z,5.99
2023-04-26T06:57:46.004Z,6.40
2023-04-26T07:00:14.046Z,6.70
2023-04-26T07:02:41.378Z,6.91
2023-04-26T07:05:09.136Z,7.06
2023-04-26T07:07:36.047Z,7.16
2023-04-26T07:10:03.981Z,7.61
2023-04-26T07:12:31.294Z,7.82
2023-04-26T07:14:58.698Z,7.95
2023-04-26T07:17:25.256Z,8.12
2023-04-26T07:19:52.837Z,8.53
2023-04-26T07:22:20.459Z,8.71
2023-04-26T07:24:47.661Z,8.70
2023-04-26T07:27:14.400Z,8.64
2023-04-26T07:29:41.729Z,8.68
2023-04-26T07:32:08.782Z,8.70
2023-04-26T07:34:36.211Z,8.76
2023-04-26T07:37:02.763Z,8.81
2023-04-26T07:39:30.025Z,9.00
2023-04-26T07:41:56.588Z,9.41
2023-04-26T07:44:23.777Z,9.69
2023-04-26T07:46:51.008Z,9.75
2023-04-26T07:49:17.930Z,9.95
2023-04-26T07:51:45.046Z,9.94
2023-04-26T07:54:12.257Z,9.91
2023-04-26T07:56:38.846Z,9.93
2023-04-26T07:59:06.021Z,9.80
2023-04-26T08:01:32.607Z,9.78
2023-04-26T08:04:00.390Z,9.82
2023-04-26T08:06:29.271Z,9.73
2023-04-26T08:08:56.526Z,9.65
2023-04-26T08:11:23.274Z,10.09
2023-04-26T08:13:50.975Z,10.50
2023-04-26T08:16:17.747Z,10.90
2023-04-26T08:18:46.778Z,11.11
2023-04-26T08:21:14.282Z,10.85
2023-04-26T08:23:41.250Z,10.75
2023-04-26T08:26:07.805Z,10.84
2023-04-26T08:28:36.116Z,10.70
2023-04-26T08:31:02.860Z,10.71
2023-04-26T08:33:30.267Z,10.78
2023-04-26T08:35:59.347Z,10.75
2023-04-26T08:38:26.280Z,10.71
2023-04-26T08:40:56.383Z,10.61
2023-04-26T08:43:23.442Z,10.80
2023-04-26T08:45:50.890Z,10.89
2023-04-26T08:48:18.705Z,10.87
2023-04-26T08:50:48.579Z,10.80
2023-04-26T08:53:19.972Z,11.05
2023-04-26T08:55:50.681Z,11.26
2023-04-26T08:58:19.101Z,11.45
2023-04-26T09:00:46.361Z,11.45
2023-04-26T09:03:13.632Z,11.35
2023-04-26T09:05:44.455Z,11.23
2023-04-26T09:08:20.324Z,11.04
2023-04-26T09:10:47.810Z,10.90
2023-04-26T09:13:14.553Z,10.80
2023-04-26T09:15:42.387Z,10.45
2023-04-26T09:18:23.218Z,10.29
2023-04-26T09:21:04.311Z,10.08
2023-04-26T09:23:31.728Z,10.10
2023-04-26T09:26:21.370Z,10.43
2023-04-26T09:28:48.905Z,10.66
2023-04-26T09:31:37.400Z,10.86
2023-04-26T09:34:04.814Z,10.82
2023-04-26T09:36:32.042Z,10.88
2023-04-26T09:38:59.248Z,10.95
2023-04-26T09:41:44.006Z,10.93
2023-04-26T09:44:24.107Z,10.91
2023-04-26T09:47:01.755Z,10.63
2023-04-26T09:49:32.437Z,10.51
2023-04-26T09:52:06.648Z,10.42
2023-04-26T09:54:50.034Z,10.25
2023-04-26T09:57:17.834Z,10.18
2023-04-26T09:59:54.207Z,10.15
2023-04-26T10:02:26.613Z,9.81
2023-04-26T10:04:56.655Z,9.63
2023-04-26T10:07:25.383Z,9.64
2023-04-26T10:09:53.807Z,9.45
2023-04-26T10:12:20.793Z,9.42
2023-04-26T10:14:48.459Z,9.50
2023-04-26T10:17:15.762Z,9.63
2023-04-26T10:19:46.849Z,9.69
2023-04-26T10:22:22.138Z,9.77
2023-04-26T10:24:50.915Z,9.64
2023-04-26T10:27:37.508Z,9.57
2023-04-26T10:30:09.199Z,9.40
2023-04-26T10:33:07.921Z,9.46
2023-04-26T10:35:38.399Z,9.48
2023-04-26T10:38:05.179Z,9.58
2023-04-26T10:40:36.434Z,9.67
2023-04-26T10:43:09.770Z,9.82
2023-04-26T10:45:37.996Z,9.94
2023-04-26T10:48:19.787Z,9.92
2023-04-26T10:50:59.715Z,9.84
2023-04-26T10:53:27.175Z,9.82
2023-04-26T10:55:54.725Z,9.75
2023-04-26T10:58:32.725Z,9.57
2023-04-26T11:01:13.767Z,9.52
2023-04-26T11:04:01.950Z,9.60
2023-04-26T11:06:51.726Z,9.65
2023-04-26T11:09:39.758Z,9.52
2023-04-26T11:12:11.856Z,9.52
2023-04-26T11:14:39.924Z,9.63
2023-04-26T11:17:07.821Z,9.82
2023-04-26T11:19:34.992Z,9.94
2023-04-26T11:22:03.430Z,10.13
2023-04-26T11:24:38.975Z,10.27
2023-04-26T11:27:11.058Z,10.20
2023-04-26T11:29:38.578Z,10.27
2023-04-26T11:32:06.314Z,10.35
2023-04-26T11:34:34.447Z,10.30
2023-04-26T11:37:06.306Z,10.38
2023-04-26T11:39:33.728Z,10.46
2023-04-26T11:42:11.028Z,10.47
2023-04-26T11:44:38.869Z,10.45
2023-04-26T11:47:07.124Z,10.35
2023-04-26T11:49:36.892Z,10.35
2023-04-26T11:52:06.489Z,10.40
2023-04-26T11:54:35.955Z,10.41
2023-04-26T11:57:18.415Z,10.48
2023-04-26T11:59:47.390Z,10.51
2023-04-26T12:02:16.316Z,10.42
2023-04-26T12:04:44.225Z,10.46
2023-04-26T12:07:11.622Z,10.47
2023-04-26T12:09:44.535Z,10.52
2023-04-26T12:12:11.796Z,10.67
2023-04-26T12:14:39.939Z,10.77
2023-04-26T12:17:07.989Z,10.79
2023-04-26T12:19:36.552Z,10.64
2023-04-26T12:22:07.329Z,10.76
2023-04-26T12:24:36.521Z,10.87
2023-04-26T12:27:06.426Z,10.94
2023-04-26T12:29:33.929Z,10.99
2023-04-26T12:32:02.311Z,10.89
2023-04-26T12:34:29.134Z,10.83
2023-04-26T12:36:56.539Z,10.86
2023-04-26T12:39:23.095Z,10.87
2023-04-26T12:41:50.392Z,10.95
2023-04-26T12:44:17.615Z,11.01
2023-04-26T12:46:46.685Z,11.04
2023-04-26T12:49:14.102Z,10.97
2023-04-26T12:51:41.517Z,10.93
2023-04-26T12:54:08.186Z,10.83
2023-04-26T12:56:38.217Z,10.80
2023-04-26T12:59:04.715Z,10.72
2023-04-26T13:01:32.167Z,10.69
2023-04-26T13:04:00.543Z,10.72
2023-04-26T13:06:28.968Z,10.80
2023-04-26T13:08:55.782Z,10.78
2023-04-26T13:11:23.020Z,10.63
2023-04-26T13:13:49.682Z,10.51
2023-04-26T13:16:17.243Z,10.41
2023-04-26T13:18:43.839Z,10.42
2023-04-26T13:21:11.122Z,10.34
2023-04-26T13:23:37.754Z,10.29
2023-04-26T13:26:05.249Z,10.28
2023-04-26T13:28:31.860Z,10.16
2023-04-26T13:30:59.875Z,10.07
2023-04-26T13:33:26.621Z,10.12
2023-04-26T13:35:53.905Z,10.17
2023-04-26T13:38:20.463Z,10.18
2023-04-26T13:40:47.816Z,10.24
2023-04-26T13:43:14.406Z,10.37
2023-04-26T13:45:41.652Z,10.43
2023-04-26T13:48:08.264Z,10.48
2023-04-26T13:50:37.740Z,10.59
2023-04-26T13:53:04.530Z,10.65
2023-04-26T13:55:32.100Z,10.79
2023-04-26T13:57:58.932Z,10.87
2023-04-26T14:00:26.295Z,10.97
2023-04-26T14:02:54.118Z,10.94
2023-04-26T14:05:21.773Z,10.90
2023-04-26T14:07:48.505Z,10.82
2023-04-26T14:10:16.277Z,10.78
2023-04-26T14:12:42.887Z,10.89
2023-04-26T14:15:10.428Z,10.91
2023-04-26T14:17:37.152Z,10.83
2023-04-26T14:20:05.711Z,10.78
2023-04-26T14:22:32.305Z,10.83
2023-04-26T14:24:59.168Z,10.80
2023-04-26T14:27:26.075Z,10.66
2023-04-26T14:29:53.946Z,10.64
2023-04-26T14:32:20.705Z,10.76
2023-04-26T14:34:47.933Z,10.84
2023-04-26T14:37:15.122Z,10.76
2023-04-26T14:39:43.172Z,10.48
2023-04-26T14:42:11.175Z,10.50
2023-04-26T14:44:39.506Z,10.55
2023-04-26T14:47:06.121Z,10.57
2023-04-26T14:49:33.305Z,10.67
2023-04-26T14:51:59.901Z,10.77
2023-04-26T14:54:27.079Z,10.87
2023-04-26T14:56:54.077Z,11.05
2023-04-26T14:59:21.106Z,11.12
2023-04-26T15:01:48.930Z,11.18
2023-04-26T15:04:15.824Z,11.28
2023-04-26T15:06:43.254Z,11.28
2023-04-26T15:09:11.715Z,11.18
2023-04-26T15:11:38.312Z,11.10
2023-04-26T15:14:05.234Z,11.04
2023-04-26T15:16:31.935Z,11.04
2023-04-26T15:18:58.957Z,10.99
2023-04-26T15:21:27.631Z,10.77
2023-04-26T15:23:56.472Z,10.71
2023-04-26T15:26:23.245Z,10.70
2023-04-26T15:28:50.470Z,10.60
2023-04-26T15:31:17.468Z,10.73
2023-04-26T15:33:44.389Z,10.94
2023-04-26T15:36:11.478Z,10.97
2023-04-26T15:38:38.169Z,11.08
2023-04-26T15:41:05.328Z,10.97
2023-04-26T15:43:31.886Z,11.02
2023-04-26T15:45:58.920Z,11.02
2023-04-26T15:48:26.177Z,11.13
2023-04-26T15:50:57.168Z,11.26
2023-04-26T15:53:24.021Z,11.27
2023-04-26T15:55:51.556Z,11.23
2023-04-26T15:58:18.300Z,11.22
2023-04-26T16:00:45.606Z,11.08
2023-04-26T16:03:12.331Z,11.12
2023-04-26T16:05:39.668Z,11.18
2023-04-26T16:08:07.064Z,11.15
2023-04-26T16:10:34.575Z,11.13
2023-04-26T16:13:01.872Z,11.08
2023-04-26T16:15:29.115Z,10.95
2023-04-26T16:17:55.928Z,11.00
2023-04-26T16:20:23.255Z,11.05
2023-04-26T16:22:49.880Z,11.11
2023-04-26T16:25:17.577Z,11.00
2023-04-26T16:27:44.613Z,10.83
2023-04-26T16:30:12.512Z,10.80
2023-04-26T16:32:39.140Z,10.69
2023-04-26T16:35:06.869Z,10.69
2023-04-26T16:37:33.720Z,10.70
2023-04-26T16:40:01.089Z,10.72
2023-04-26T16:42:29.932Z,10.69
2023-04-26T16:44:57.140Z,10.62
2023-04-26T16:47:23.869Z,10.52
2023-04-26T16:49:51.625Z,10.45
2023-04-26T16:52:18.195Z,10.30
2023-04-26T16:54:45.542Z,10.23
2023-04-26T16:57:13.357Z,10.23
2023-04-26T16:59:40.312Z,10.17
2023-04-26T17:02:07.121Z,10.12
2023-04-26T17:04:34.375Z,10.06
2023-04-26T17:07:01.221Z,9.99
2023-04-26T17:09:28.450Z,9.93
2023-04-26T17:11:55.076Z,9.87
2023-04-26T17:14:22.372Z,9.82
2023-04-26T17:16:48.949Z,9.81
2023-04-26T17:19:15.697Z,9.76
2023-04-26T17:21:42.717Z,9.70
2023-04-26T17:24:09.995Z,9.58
2023-04-26T17:26:36.808Z,9.53
2023-04-26T17:29:03.734Z,9.45
2023-04-26T17:31:30.400Z,9.38
2023-04-26T17:33:57.694Z,9.28
2023-04-26T17:36:24.410Z,9.22
2023-04-26T17:38:51.363Z,9.17
2023-04-26T17:41:18.036Z,9.12
2023-04-26T17:43:45.741Z,9.07
2023-04-26T17:46:12.480Z,9.00
2023-04-26T17:48:39.888Z,8.95
2023-04-26T17:51:06.580Z,8.89
2023-04-26T17:53:33.815Z,8.80
2023-04-26T17:56:00.420Z,8.75
2023-04-26T17:58:27.370Z,8.68
2023-04-26T18:00:54.099Z,8.67
2023-04-26T18:03:21.464Z,8.61
2023-04-26T18:05:48.291Z,8.57
2023-04-26T18:08:14.954Z,8.52
2023-04-26T18:10:41.592Z,8.47
2023-04-26T18:13:08.549Z,8.46
2023-04-26T18:15:35.122Z,8.41
2023-04-26T18:18:05.791Z,8.41
2023-04-26T18:20:32.532Z,8.38
2023-04-26T18:22:59.736Z,8.37
2023-04-26T18:25:26.636Z,8.31
2023-04-26T18:27:53.588Z,8.28
2023-04-26T18:30:20.321Z,8.29
2023-04-26T18:32:47.547Z,8.30
2023-04-26T18:35:14.220Z,8.25
2023-04-26T18:37:42.335Z,8.22
2023-04-26T18:40:09.451Z,8.17
2023-04-26T18:42:39.020Z,8.12
2023-04-26T18:45:06.867Z,8.10
2023-04-26T18:47:33.494Z,8.08
2023-04-26T18:50:00.048Z,8.06
2023-04-26T18:52:26.914Z,8.02
2023-04-26T18:54:53.465Z,8.00
2023-04-26T18:57:22.863Z,7.99
2023-04-26T18:59:49.617Z,7.99
2023-04-26T19:02:16.900Z,8.00
2023-04-26T19:04:43.824Z,7.99
2023-04-26T19:07:10.938Z,7.98
2023-04-26T19:09:50.405Z,7.97
2023-04-26T19:12:21.232Z,7.95
2023-04-26T19:14:47.900Z,7.93
2023-04-26T19:17:14.818Z,7.90
2023-04-26T19:19:41.747Z,7.89
2023-04-26T19:22:08.719Z,7.89
2023-04-26T19:24:35.717Z,7.87
2023-04-26T19:27:03.033Z,7.85
2023-04-26T19:29:33.068Z,7.83
2023-04-26T19:32:00.561Z,7.82
2023-04-26T19:34:27.663Z,7.79
2023-04-26T19:36:54.813Z,7.79
2023-04-26T19:39:23.402Z,7.75
2023-04-26T19:41:51.720Z,7.75
2023-04-26T19:44:18.438Z,7.72
2023-04-26T19:46:45.231Z,7.68
2023-04-26T19:49:12.114Z,7.67
2023-04-26T19:51:39.309Z,7.65
2023-04-26T19:54:06.122Z,7.63
2023-04-26T19:56:33.354Z,7.62
2023-04-26T19:58:59.951Z,7.61
2023-04-26T20:01:27.984Z,7.60
2023-04-26T20:03:54.827Z,7.56
2023-04-26T20:06:21.767Z,7.52
2023-04-26T20:08:48.485Z,7.51
2023-04-26T20:11:17.000Z,7.49
2023-04-26T20:13:44.299Z,7.46
2023-04-26T20:16:12.842Z,7.43
2023-04-26T20:18:39.520Z,7.40
2023-04-26T20:21:06.450Z,7.37
2023-04-26T20:23:33.294Z,7.36
2023-04-26T20:25:59.926Z,7.33
2023-04-26T20:28:26.678Z,7.28
